AirNav   Pilot Hours Calculator
 
 884 users online  

10WA Flying L Airport
Glenwood, Washington, USA

GOING TO GLENWOOD?


FAA INFORMATION EFFECTIVE 07 NOVEMBER 2019

Location

FAA Identifier: 10WA
Lat/Long: 46-01-29.2801N 121-16-29.9484W
46-01.488002N 121-16.499140W
46.0248000,-121.2749857
(estimated)
Elevation: 1901 ft. / 579 m (estimated)
From city: 1 mile NE of GLENWOOD, WA
Time zone: UTC -8 (UTC -7 during Daylight Saving Time)
Zip code: 98619

Airport Operations

Airport use: CLOSED INDEFINITELY
Activation date: 10/2017
Control tower: no
ARTCC: SEATTLE CENTER
FSS: SEATTLE FLIGHT SERVICE STATION
Attendance: 
Wind indicator: yes
Segmented circle: no

Nearby radio navigation aids

VOR radial/distance  VOR name  Freq  Var
LTJr318/20.0KLICKITAT VOR/DME112.3021E

Airport Services

Runway Information

Runway 4/22

Dimensions: 2116 x 145 ft. / 645 x 44 m
Surface: turf, in fair condition
RUNWAY 4  RUNWAY 22
Latitude: 46-01.387670N46-01.588333N
Longitude: 121-16.703280W121-16.295000W
Elevation: 1901.0 ft.1901.0 ft.
Traffic pattern: leftleft
Obstructions: 4 ft. fence150 ft. tree, 440 ft. from runway

Airport Ownership and Management from official FAA records

Ownership: Privately-owned
Owner: JULEE WASSERMAN
25 FLYING L LANE
GLENWOOD, WA 98619
Phone 509-364-3488
Manager: JULEE WASSERMAN
25 FLYING L LANE
GLENWOOD, WA 98619
Phone 509-364-3488

Additional Remarks

FOR CD CTC SEATTLE ARTCC AT 253-351-3694.
(ARPT STATUS) ARPT CLSD INDEFLY.

Instrument Procedures

There are no published instrument procedures at 10WA.

Some nearby airports with instrument procedures:

KDLS - Columbia Gorge Regional/The Dalles Municipal Airport (25 nm S)
KYKM - Yakima Air Terminal/McAllister Field (45 nm NE)
KTTD - Portland-Troutdale Airport (55 nm SW)
KPDX - Portland International Airport (61 nm SW)
KVUO - Pearson Field Airport (63 nm W)
 
Loc | Ops | Rwys | IFR | FBO | Links
Com | Nav | Svcs | Stats | Notes
Aerial photo
No photo
 
Airport distance calculator
Flying to Flying L Airport? Find the distance to fly.

From to 10WA

Sunrise and sunset
Times for 11-Nov-2019
 Local
(UTC-8)
 Zulu
(UTC)
Morning civil twilight06:2914:29
Sunrise07:0115:01
Sunset16:3700:37
Evening civil twilight17:0901:09

Current date and time
Zulu (UTC)  12-Nov-2019 01:51:04
Local (UTC-8)  11-Nov-2019 17:51:04
 
METAR
K4S2 
24nm SW 
120135Z AUTO 04003KT 10SM CLR 07/03 A3032 RMK AO2
KDLS 
25nm S 
120053Z AUTO 00000KT 10SM CLR 09/03 A3032 RMK AO2 SLP270 T00940033
KYKM 
45nm NE 
120053Z 13006KT 10SM CLR 07/M01 A3032 RMK AO2 SLP277 T00721006
TAF
KDLS 
25nm S 
111914Z 1119/1218 VRB03KT 5SM HZ FEW009 BKN030 FM112000 10005KT P6SM FEW150 SCT250 FM120500 09003KT 4SM BR SCT006 BKN200 FM121600 VRB03KT 6SM BR SCT100 BKN200
NOTAMs
Click for the latest NOTAMs
NOTAMs are issued by the DoD/FAA and will open in a separate window not controlled by AirNav.

 

 
 

Would you like to see your business listed on this page?

 If your business provides an interesting product or service to pilots, flight crews, aircraft, or users of the Flying L Airport, you should consider listing it here.  To start the listing process, click on the button below
 
Add a business
 

Other Pages about Flying L Airport

Update a link
 
Copyright © AirNav, LLC. All rights reserved. Privacy Policy  Contact